Allwood, New Jersey
Current Conditions -  °F | °C
As of 2:51 PM on Friday 21 Nov 2014 (Local Time) from KTEB Reporting Station
Clear Clear  
Wind Chill: 26°   Ceiling: Unl
Heat Index: 36°   Visibility: 10mi
Dew Point:   Wind: 17mph
Humidity: 31%   Direction: 320°NW
Pressure: 30.33"   Gusts: 23mph
Location:  40.8469°N, 74.1593°W
Report Text: KTEB 211951Z 32015G20KT 10SM CLR 02/M13 A3033 RMK AO2 PK WND 32026/1904 SLP271 T00221133
Loading
Personal Weather Stations






























Interactive Weather Map New forecast layout! Learn more

10-Day Weather Forecast

Advertisements
Track Severe Weather on mobile